Time;durP1;ratioP1;P1;durP2;ratioP2;P2;SDS_P1;SDS_P2;PMS_P1;PMS_P2;Temp;Humidity;BMP_temperature;BMP_pressure;BME280_temperature;BME280_humidity;BME280_pressure;Samples;Min_cycle;Max_cycle;Signal;HPM_P1;HPM_P2
2020/12/22 00:01:55;;;;;;;9.80;3.22;;;24.10;57.30;;;;;;5053063;28;20029;-48
2020/12/22 00:04:23;;;;;;;6.03;3.13;;;24.20;57.30;;;;;;5056123;28;20118;-48
2020/12/22 00:06:50;;;;;;;8.02;3.47;;;24.40;57.30;;;;;;5064113;28;20025;-47
2020/12/22 00:09:17;;;;;;;7.15;2.83;;;24.50;57.30;;;;;;5053947;28;20036;-47
2020/12/22 00:11:43;;;;;;;6.78;3.35;;;24.70;57.20;;;;;;5056402;28;20025;-47
2020/12/22 00:14:09;;;;;;;8.20;2.95;;;24.80;57.10;;;;;;5068594;28;20036;-48
2020/12/22 00:16:37;;;;;;;8.65;3.08;;;24.90;57.00;;;;;;5059243;28;20040;-47
2020/12/22 00:19:05;;;;;;;10.55;2.97;;;25.00;57.00;;;;;;5057348;28;20071;-47
2020/12/22 00:21:35;;;;;;;5.60;2.92;;;25.10;57.40;;;;;;5053901;28;20017;-47
2020/12/22 00:24:01;;;;;;;9.20;3.03;;;25.20;56.80;;;;;;5053852;28;20367;-48
2020/12/22 00:26:28;;;;;;;9.07;3.10;;;25.30;56.70;;;;;;5053933;28;20025;-47
2020/12/22 00:28:55;;;;;;;7.75;3.08;;;25.40;56.50;;;;;;5053921;28;20466;-48
2020/12/22 00:31:21;;;;;;;9.68;3.13;;;25.40;56.30;;;;;;5053911;28;20048;-47
2020/12/22 00:33:48;;;;;;;5.70;2.90;;;25.50;56.30;;;;;;5053528;28;20029;-47
2020/12/22 00:36:15;;;;;;;10.20;2.70;;;25.50;56.20;;;;;;5053748;28;20025;-47
2020/12/22 00:38:44;;;;;;;5.78;2.60;;;25.60;56.20;;;;;;5053531;28;20021;-47
2020/12/22 00:41:14;;;;;;;14.80;3.38;;;25.60;56.10;;;;;;5052743;28;20028;-47
2020/12/22 00:43:42;;;;;;;8.23;2.75;;;25.70;56.00;;;;;;5053614;28;20036;-47
2020/12/22 00:46:09;;;;;;;7.22;2.70;;;25.70;55.90;;;;;;5053435;28;20040;-47
2020/12/22 00:48:35;;;;;;;7.38;3.10;;;25.70;55.90;;;;;;5053272;28;20484;-48
2020/12/22 00:51:02;;;;;;;10.35;2.80;;;25.70;55.80;;;;;;5053543;28;20028;-47
2020/12/22 00:53:28;;;;;;;6.13;2.60;;;25.80;55.80;;;;;;5053649;28;20501;-47
2020/12/22 00:55:55;;;;;;;7.88;2.67;;;25.80;55.70;;;;;;5053899;28;20032;-47
2020/12/22 00:58:21;;;;;;;6.35;2.70;;;25.80;55.70;;;;;;5058994;28;20028;-47
2020/12/22 01:00:48;;;;;;;4.95;2.45;;;25.80;55.70;;;;;;5071768;28;20032;-47
2020/12/22 01:03:14;;;;;;;10.75;2.65;;;25.80;55.70;;;;;;5058047;28;20056;-47
2020/12/22 01:05:59;;;;;;;4.85;2.50;;;25.80;55.70;;;;;;5053556;28;20061;-47
2020/12/22 01:08:26;;;;;;;4.18;2.25;;;25.80;55.70;;;;;;5053502;28;20100;-47
2020/12/22 01:10:54;;;;;;;6.13;2.53;;;25.80;55.70;;;;;;5053996;28;20439;-47
2020/12/22 01:13:21;;;;;;;4.57;2.25;;;25.80;55.70;;;;;;5063977;28;20033;-47
2020/12/22 01:15:47;;;;;;;7.03;2.17;;;25.80;55.60;;;;;;5056548;28;20052;-47
2020/12/22 01:18:14;;;;;;;7.35;2.30;;;25.80;55.70;;;;;;5057530;28;20167;-48
2020/12/22 01:20:41;;;;;;;4.95;2.25;;;25.80;55.60;;;;;;5057884;28;20033;-48
2020/12/22 01:23:07;;;;;;;6.13;1.85;;;25.80;55.60;;;;;;5057341;28;20052;-48
2020/12/22 01:25:34;;;;;;;5.10;2.10;;;25.80;55.60;;;;;;5057038;28;20032;-47
2020/12/22 01:28:00;;;;;;;5.75;2.17;;;25.80;55.60;;;;;;5057339;28;20025;-47
2020/12/22 01:30:26;;;;;;;2.65;1.60;;;25.80;55.60;;;;;;5057194;28;20033;-47
2020/12/22 01:32:53;;;;;;;4.20;1.80;;;25.80;55.50;;;;;;5056964;28;20032;-47
2020/12/22 01:35:19;;;;;;;3.35;1.80;;;25.90;55.60;;;;;;5057350;28;20025;-48
2020/12/22 01:37:46;;;;;;;3.90;1.88;;;25.80;55.40;;;;;;5057016;28;20040;-47
2020/12/22 01:40:12;;;;;;;4.65;2.15;;;25.80;55.30;;;;;;5057070;28;20025;-48
2020/12/22 01:42:45;;;;;;;4.47;2.10;;;25.90;55.30;;;;;;5056969;28;20478;-47
2020/12/22 01:45:13;;;;;;;4.82;1.80;;;25.90;55.30;;;;;;5056914;28;20104;-47
2020/12/22 01:47:47;;;;;;;2.92;1.63;;;25.90;55.40;;;;;;5057194;28;20025;-47
2020/12/22 01:50:18;;;;;;;2.75;1.52;;;25.90;55.30;;;;;;5057496;28;20031;-47
2020/12/22 01:52:46;;;;;;;2.83;1.55;;;25.90;55.30;;;;;;5056898;28;20060;-47
2020/12/22 01:55:12;;;;;;;3.17;1.70;;;25.80;55.30;;;;;;5057251;28;20041;-47
2020/12/22 01:57:39;;;;;;;3.75;1.70;;;25.80;55.20;;;;;;5056377;28;20061;-47
2020/12/22 02:00:07;;;;;;;3.20;1.75;;;25.80;55.20;;;;;;5056948;28;20116;-47
2020/12/22 02:02:34;;;;;;;6.78;1.63;;;25.80;55.10;;;;;;5057197;28;20033;-47
2020/12/22 02:05:04;;;;;;;5.70;1.73;;;25.70;55.00;;;;;;5064055;28;20112;-47
2020/12/22 02:07:31;;;;;;;5.63;1.60;;;25.70;55.10;;;;;;5055813;28;20064;-47
2020/12/22 02:09:58;;;;;;;5.85;1.67;;;25.60;55.00;;;;;;5055880;28;20025;-47
2020/12/22 02:12:24;;;;;;;3.17;1.63;;;25.60;55.00;;;;;;5056231;28;20052;-47
2020/12/22 02:14:51;;;;;;;3.80;1.55;;;25.60;55.00;;;;;;5056347;28;20118;-47
2020/12/22 02:17:18;;;;;;;7.10;2.30;;;25.50;55.00;;;;;;5056335;28;20024;-47
2020/12/22 02:19:44;;;;;;;5.13;2.00;;;25.50;55.10;;;;;;5055630;28;20033;-47
2020/12/22 02:22:11;;;;;;;9.57;2.20;;;25.50;55.20;;;;;;5056292;28;20017;-47
2020/12/22 02:24:37;;;;;;;9.20;2.60;;;25.40;55.20;;;;;;5055527;28;20132;-47
2020/12/22 02:27:05;;;;;;;4.32;2.60;;;25.30;55.20;;;;;;5055749;28;20028;-47
2020/12/22 02:29:32;;;;;;;6.30;2.53;;;25.30;55.40;;;;;;5055785;28;20159;-47
2020/12/22 02:31:59;;;;;;;10.88;2.72;;;25.20;55.50;;;;;;5055919;28;20033;-47
2020/12/22 02:34:26;;;;;;;8.80;2.92;;;25.20;55.60;;;;;;5055545;28;20373;-46
2020/12/22 02:36:52;;;;;;;16.25;11.23;;;25.20;55.60;;;;;;5055564;28;20033;-47
2020/12/22 02:39:19;;;;;;;11.35;5.45;;;25.10;55.60;;;;;;5054963;28;20029;-46
2020/12/22 02:41:46;;;;;;;7.47;3.90;;;25.00;55.60;;;;;;5055890;28;20065;-47
2020/12/22 02:44:12;;;;;;;9.10;3.90;;;25.00;55.70;;;;;;5055799;28;20029;-47
2020/12/22 02:46:39;;;;;;;7.45;4.05;;;24.90;55.80;;;;;;5055866;28;20033;-47
2020/12/22 02:49:06;;;;;;;9.15;3.60;;;24.90;55.90;;;;;;5054027;28;20029;-46
2020/12/22 02:51:33;;;;;;;7.65;3.80;;;24.80;55.80;;;;;;5055728;28;20044;-47
2020/12/22 02:54:00;;;;;;;6.90;3.22;;;24.80;55.90;;;;;;5054989;28;20435;-47
2020/12/22 02:56:26;;;;;;;6.65;3.13;;;24.80;56.00;;;;;;5055577;28;20069;-47
2020/12/22 02:58:53;;;;;;;9.88;3.60;;;24.70;55.90;;;;;;5055358;28;20044;-47
2020/12/22 03:01:19;;;;;;;11.00;3.75;;;24.80;56.00;;;;;;5055775;28;20033;-47
2020/12/22 03:03:46;;;;;;;5.38;2.97;;;24.70;56.00;;;;;;5054765;28;20446;-46
2020/12/22 03:06:12;;;;;;;5.28;3.05;;;24.70;56.00;;;;;;5055358;28;20029;-46
2020/12/22 03:08:39;;;;;;;6.82;3.10;;;24.70;56.10;;;;;;5050925;28;20029;-46
2020/12/22 03:11:06;;;;;;;8.60;2.90;;;24.70;56.00;;;;;;5054763;28;20021;-46
2020/12/22 03:13:33;;;;;;;4.20;2.47;;;24.70;56.20;;;;;;5055078;28;20021;-47
2020/12/22 03:16:00;;;;;;;8.27;2.70;;;24.70;56.00;;;;;;5054871;28;20499;-46
2020/12/22 03:18:26;;;;;;;6.70;2.97;;;24.70;56.00;;;;;;5054796;28;20029;-47
2020/12/22 03:20:53;;;;;;;4.10;2.40;;;24.70;55.90;;;;;;5054981;28;20029;-46
2020/12/22 03:23:19;;;;;;;5.40;2.55;;;24.70;56.00;;;;;;5052601;28;20390;-46
2020/12/22 03:25:46;;;;;;;5.80;2.42;;;24.70;55.90;;;;;;5054483;28;20041;-47
2020/12/22 03:28:13;;;;;;;4.60;2.33;;;24.80;55.90;;;;;;5055045;28;20024;-46
2020/12/22 03:30:39;;;;;;;4.40;2.08;;;24.80;55.90;;;;;;5055016;28;20074;-46
2020/12/22 03:33:06;;;;;;;4.88;2.20;;;24.80;55.80;;;;;;5054465;28;20033;-47
2020/12/22 03:35:32;;;;;;;4.03;2.28;;;24.90;55.80;;;;;;5034998;28;20083;-47
2020/12/22 03:37:59;;;;;;;7.32;2.17;;;24.90;55.70;;;;;;5038242;28;20025;-47
2020/12/22 03:40:26;;;;;;;4.68;2.08;;;24.90;55.60;;;;;;5054505;28;20035;-47
2020/12/22 03:42:53;;;;;;;7.43;2.30;;;25.00;55.50;;;;;;5054344;28;20112;-46
2020/12/22 03:45:21;;;;;;;5.45;2.33;;;25.00;55.40;;;;;;5054424;28;20402;-46
2020/12/22 03:47:47;;;;;;;4.50;2.00;;;25.10;55.40;;;;;;5053854;28;20496;-46
2020/12/22 03:50:14;;;;;;;5.30;1.92;;;25.10;55.30;;;;;;5054721;28;20017;-47
2020/12/22 03:52:41;;;;;;;4.80;1.90;;;25.10;55.20;;;;;;5054420;28;20108;-47
2020/12/22 03:55:07;;;;;;;4.25;1.98;;;25.20;55.10;;;;;;5054234;28;20029;-47
2020/12/22 03:57:34;;;;;;;4.55;1.92;;;25.20;55.00;;;;;;5054321;28;20078;-47
2020/12/22 04:00:00;;;;;;;5.63;1.98;;;25.30;55.00;;;;;;5054155;28;20025;-47
2020/12/22 04:02:27;;;;;;;3.88;1.80;;;25.30;54.90;;;;;;5054350;28;20375;-47
2020/12/22 04:04:54;;;;;;;6.28;1.92;;;25.30;54.80;;;;;;5053937;28;20128;-47
2020/12/22 04:07:21;;;;;;;3.40;1.55;;;25.40;54.70;;;;;;5054127;28;20086;-47
2020/12/22 04:09:48;;;;;;;3.28;1.70;;;25.40;54.50;;;;;;5053538;28;20060;-46
2020/12/22 04:12:15;;;;;;;5.18;1.50;;;25.50;54.50;;;;;;5054057;28;20025;-46
2020/12/22 04:14:41;;;;;;;5.10;1.38;;;25.50;54.40;;;;;;5054159;28;20087;-46
2020/12/22 04:17:08;;;;;;;2.50;1.50;;;25.50;54.20;;;;;;5052623;28;20492;-46
2020/12/22 04:19:34;;;;;;;2.63;1.35;;;25.60;54.10;;;;;;5054068;28;20033;-47
2020/12/22 04:22:01;;;;;;;3.42;1.40;;;25.60;54.00;;;;;;5053868;28;20032;-47
2020/12/22 04:24:27;;;;;;;3.00;1.58;;;25.60;53.80;;;;;;5052477;28;20449;-47
2020/12/22 04:26:54;;;;;;;2.08;1.40;;;25.70;53.80;;;;;;5054007;28;20108;-47
2020/12/22 04:29:20;;;;;;;4.03;1.52;;;25.70;53.80;;;;;;5053583;28;20079;-46
2020/12/22 04:31:47;;;;;;;4.88;1.27;;;25.80;53.70;;;;;;5053706;28;20467;-46
2020/12/22 04:34:13;;;;;;;2.53;1.40;;;25.70;53.50;;;;;;5053309;28;20032;-46
2020/12/22 04:36:40;;;;;;;2.90;1.27;;;25.80;53.40;;;;;;5053641;28;20025;-46
2020/12/22 04:39:06;;;;;;;2.83;1.23;;;25.80;53.40;;;;;;5053895;28;20108;-46
2020/12/22 04:41:36;;;;;;;2.60;1.17;;;25.80;53.20;;;;;;5053839;28;20021;-46
2020/12/22 04:44:03;;;;;;;1.58;0.93;;;25.80;53.10;;;;;;5052964;28;20039;-47
2020/12/22 04:46:34;;;;;;;2.20;1.02;;;25.80;53.00;;;;;;5053774;28;20421;-46
2020/12/22 04:49:00;;;;;;;2.60;0.90;;;25.80;52.90;;;;;;5053017;28;20036;-46
2020/12/22 04:51:27;;;;;;;1.45;0.93;;;25.80;53.00;;;;;;5053685;28;20057;-47
2020/12/22 04:53:54;;;;;;;2.00;1.10;;;25.90;52.90;;;;;;5053283;28;20033;-47
2020/12/22 04:56:21;;;;;;;1.55;0.80;;;25.80;52.70;;;;;;5053426;28;20032;-46
2020/12/22 04:58:48;;;;;;;2.03;1.10;;;25.80;52.70;;;;;;5053103;28;20029;-46
2020/12/22 05:01:16;;;;;;;2.30;1.02;;;25.80;52.60;;;;;;5053566;28;20025;-47
2020/12/22 05:03:44;;;;;;;1.90;0.90;;;25.80;52.50;;;;;;5052737;28;20096;-46
2020/12/22 05:06:10;;;;;;;1.45;0.80;;;25.80;52.50;;;;;;5053587;28;20029;-46
2020/12/22 05:08:37;;;;;;;1.90;0.90;;;25.80;52.40;;;;;;5053542;28;20031;-46
2020/12/22 05:11:03;;;;;;;2.08;0.98;;;25.80;52.40;;;;;;5053693;28;20392;-46
2020/12/22 05:13:30;;;;;;;2.83;1.10;;;25.80;52.40;;;;;;5053554;28;20032;-46
2020/12/22 05:15:56;;;;;;;3.50;1.05;;;25.80;52.80;;;;;;5053263;28;20056;-46
2020/12/22 05:18:25;;;;;;;0.82;0.75;;;25.80;52.20;;;;;;5053073;28;20083;-47
2020/12/22 05:20:55;;;;;;;1.60;0.77;;;25.80;52.20;;;;;;5053363;28;20082;-46
2020/12/22 05:23:22;;;;;;;1.98;0.90;;;25.80;52.10;;;;;;5053036;28;20044;-46
2020/12/22 05:25:51;;;;;;;2.20;0.80;;;25.70;52.00;;;;;;5052908;28;20025;-46
2020/12/22 05:28:20;;;;;;;1.85;0.82;;;25.70;52.10;;;;;;5053534;28;20052;-46
2020/12/22 05:30:48;;;;;;;1.65;0.80;;;25.60;52.00;;;;;;5054073;28;20024;-47
2020/12/22 05:33:15;;;;;;;1.17;0.70;;;25.60;51.90;;;;;;5052657;28;20483;-47
2020/12/22 05:35:47;;;;;;;0.95;0.70;;;25.60;51.80;;;;;;5053610;28;20032;-47
2020/12/22 05:38:19;;;;;;;1.85;0.80;;;25.60;51.90;;;;;;5053087;28;20159;-47
2020/12/22 05:40:46;;;;;;;5.18;1.00;;;25.50;51.80;;;;;;5051742;28;20529;-48
2020/12/22 05:43:12;;;;;;;2.28;0.82;;;25.50;51.80;;;;;;5051664;28;20054;-48
2020/12/22 05:45:43;;;;;;;3.97;1.20;;;25.50;51.90;;;;;;5052812;28;20462;-47
2020/12/22 05:48:15;;;;;;;4.43;0.90;;;25.50;51.70;;;;;;5052880;28;20151;-46
2020/12/22 05:50:48;;;;;;;;;;;25.40;51.50;;;;;;5053677;28;20017;-47
2020/12/22 05:53:15;;;;;;;6.82;1.10;;;25.40;51.80;;;;;;5051657;28;20262;-47
2020/12/22 05:55:41;;;;;;;7.80;2.22;;;25.30;51.60;;;;;;5053165;28;20096;-47
2020/12/22 05:58:10;;;;;;;10.07;2.75;;;25.30;51.70;;;;;;5052895;28;20029;-47
2020/12/22 06:00:39;;;;;;;5.53;3.38;;;25.20;51.70;;;;;;5053453;28;20025;-47
2020/12/22 06:03:08;;;;;;;5.18;3.20;;;25.20;51.90;;;;;;5056183;28;20474;-47
2020/12/22 06:05:45;;;;;;;6.72;2.50;;;25.10;51.90;;;;;;5055759;28;20029;-48
2020/12/22 06:08:16;;;;;;;5.47;2.20;;;25.10;52.00;;;;;;5056308;28;20025;-47
2020/12/22 06:10:44;;;;;;;10.23;2.20;;;25.00;52.00;;;;;;5056416;28;20374;-47
2020/12/22 06:13:12;;;;;;;7.75;2.22;;;25.00;52.10;;;;;;5056498;28;20059;-47
2020/12/22 06:15:39;;;;;;;5.30;2.10;;;24.90;52.20;;;;;;5037031;28;20096;-47
2020/12/22 06:18:06;;;;;;;6.70;1.95;;;24.90;52.30;;;;;;5036735;28;20025;-47
2020/12/22 06:20:33;;;;;;;10.05;2.03;;;24.80;52.30;;;;;;5036349;28;20036;-47
2020/12/22 06:23:07;;;;;;;9.23;2.97;;;24.80;52.30;;;;;;5041201;28;20139;-46
2020/12/22 06:25:34;;;;;;;10.65;2.10;;;24.70;52.10;;;;;;5049944;28;20033;-47
2020/12/22 06:28:01;;;;;;;11.13;1.95;;;24.60;51.50;;;;;;5041194;28;20040;-47
